Página principal
METAR-TAF:

METAR-TAF

Aeroportos :

Gorgan, Irão

latitude: 36-49N, longitude: 054-28E, altura: 155 m

Observação actual do tempo

O boletim foi feito há 22 minutos, às 21:00 UTC
Vento calmo
Temperatura 9°C
Humidade 93%
Pressão 1021 hPa
Visibilidade: 7000 m
Poucas nuvensa uma altura de 2500 ft
Nuvens fragmentadasa uma altura de 9000 ft

METAR: OING 112100Z 00000KT 7000 FEW025 BKN090 09/08 Q1021

Hora: 00:52 (21:22 UTC)


TAF: em falta

Observações e previsões do tempo de mais de 4000 aeroportos (mensagens METAR e TAF).

As estações disponíveis são os pontos amarelos e vermelhos sobre o mapa.

Mova o rato sobre o mapa para ver o nome da estação.

Depois clique no ponto para visualizar as observações e previsões meteorológicas.

Para alterar o mapa : clique nos botões verdes com uma cruz preta para aumentar o zoom; no botão verde com uma pitada de zoom; ou nas setas verdes para mapas adjacentes.


METAR-TAF: